createdAt,value
2022-12-09T00:02:18.399Z,5.14
2022-12-09T00:04:45.344Z,5.48
2022-12-09T00:07:12.458Z,5.37
2022-12-09T00:09:39.318Z,5.61
2022-12-09T00:12:06.303Z,5.49
2022-12-09T00:14:33.213Z,5.74
2022-12-09T00:17:00.309Z,5.79
2022-12-09T00:19:27.243Z,5.90
2022-12-09T00:21:54.221Z,5.92
2022-12-09T00:24:21.345Z,5.93
2022-12-09T00:26:48.007Z,5.58
2022-12-09T00:29:14.889Z,5.34
2022-12-09T00:31:41.824Z,5.72
2022-12-09T00:34:12.552Z,5.63
2022-12-09T00:36:40.484Z,5.64
2022-12-09T00:39:07.308Z,5.77
2022-12-09T00:41:34.025Z,5.54
2022-12-09T00:44:00.640Z,5.37
2022-12-09T00:46:27.715Z,5.62
2022-12-09T00:48:54.455Z,4.98
2022-12-09T00:51:23.832Z,5.01
2022-12-09T00:53:52.257Z,4.19
2022-12-09T00:56:19.000Z,4.74
2022-12-09T00:58:45.850Z,4.94
2022-12-09T01:01:12.717Z,4.83
2022-12-09T01:03:40.045Z,5.06
2022-12-09T01:06:18.085Z,4.73
2022-12-09T01:08:45.945Z,4.86
2022-12-09T01:11:18.893Z,4.91
2022-12-09T01:13:46.198Z,5.17
2022-12-09T01:16:15.768Z,5.14
2022-12-09T01:18:42.805Z,4.79
2022-12-09T01:21:09.805Z,5.01
2022-12-09T01:23:36.575Z,5.11
2022-12-09T01:26:05.583Z,5.17
2022-12-09T01:28:34.743Z,5.09
2022-12-09T01:31:06.673Z,5.15
2022-12-09T01:33:33.635Z,5.18
2022-12-09T01:36:00.581Z,5.50
2022-12-09T01:38:27.264Z,5.52
2022-12-09T01:40:53.908Z,5.70
2022-12-09T01:43:21.471Z,5.52
2022-12-09T01:45:48.189Z,5.43
2022-12-09T01:48:19.513Z,5.62
2022-12-09T01:50:52.227Z,5.76
2022-12-09T01:53:24.524Z,5.64
2022-12-09T01:55:51.714Z,5.86
2022-12-09T01:58:19.840Z,5.89
2022-12-09T02:00:50.395Z,5.91
2022-12-09T02:03:17.243Z,5.98
2022-12-09T02:05:45.024Z,6.04
2022-12-09T02:08:13.767Z,5.86
2022-12-09T02:10:57.338Z,5.86
2022-12-09T02:13:43.162Z,5.81
2022-12-09T02:16:17.860Z,5.64
2022-12-09T02:19:12.027Z,5.90
2022-12-09T02:21:49.613Z,5.73
2022-12-09T02:24:31.677Z,6.01
2022-12-09T02:27:20.228Z,6.00
2022-12-09T02:30:08.597Z,6.09
2022-12-09T02:32:46.158Z,6.10
2022-12-09T02:35:42.781Z,6.08
2022-12-09T02:38:16.874Z,6.16
2022-12-09T02:40:53.823Z,6.22
2022-12-09T02:43:26.313Z,6.33
2022-12-09T02:45:56.700Z,5.95
2022-12-09T02:48:32.089Z,6.24
2022-12-09T02:51:03.741Z,6.00
2022-12-09T02:53:31.713Z,6.21
2022-12-09T02:55:59.095Z,5.97
2022-12-09T02:58:26.065Z,5.86
2022-12-09T03:00:56.700Z,5.98
2022-12-09T03:03:24.510Z,6.02
2022-12-09T03:06:14.474Z,6.00
2022-12-09T03:09:02.671Z,5.72
2022-12-09T03:11:32.798Z,5.75
2022-12-09T03:14:02.377Z,5.77
2022-12-09T03:17:05.458Z,5.80
2022-12-09T03:19:40.992Z,5.86
2022-12-09T03:22:14.245Z,5.96
2022-12-09T03:24:55.691Z,6.02
2022-12-09T03:27:28.049Z,5.90
2022-12-09T03:29:57.952Z,6.02
2022-12-09T03:32:28.322Z,5.86
2022-12-09T03:35:08.429Z,5.63
2022-12-09T03:37:40.066Z,5.34
2022-12-09T03:40:14.336Z,5.35
2022-12-09T03:43:20.391Z,5.58
2022-12-09T03:45:48.018Z,5.46
2022-12-09T03:48:16.046Z,5.43
2022-12-09T03:50:54.316Z,5.74
2022-12-09T03:53:45.555Z,5.75
2022-12-09T03:56:25.968Z,5.83
2022-12-09T03:58:55.975Z,5.72
2022-12-09T04:01:29.046Z,5.84
2022-12-09T04:03:57.311Z,5.85
2022-12-09T04:06:24.813Z,5.80
2022-12-09T04:08:51.478Z,5.94
2022-12-09T04:11:18.444Z,5.94
2022-12-09T04:14:07.099Z,6.03
2022-12-09T04:16:50.882Z,6.01
2022-12-09T04:19:31.466Z,5.86
2022-12-09T04:22:18.177Z,5.85
2022-12-09T04:24:44.827Z,5.74
2022-12-09T04:27:11.880Z,5.81
2022-12-09T04:29:38.622Z,5.65
2022-12-09T04:32:06.111Z,5.58
2022-12-09T04:34:34.119Z,5.75
2022-12-09T04:37:03.837Z,5.75
2022-12-09T04:39:31.381Z,5.78
2022-12-09T04:41:58.110Z,5.75
2022-12-09T04:44:24.733Z,5.00
2022-12-09T04:46:51.413Z,4.94
2022-12-09T04:49:18.093Z,5.17
2022-12-09T04:51:45.131Z,4.84
2022-12-09T04:54:14.843Z,4.67
2022-12-09T04:56:42.517Z,5.08
2022-12-09T04:59:09.744Z,5.36
2022-12-09T05:01:36.542Z,5.59
2022-12-09T05:04:05.402Z,5.62
2022-12-09T05:06:32.712Z,5.76
2022-12-09T05:08:59.689Z,5.67
2022-12-09T05:11:26.980Z,5.67
2022-12-09T05:13:54.793Z,5.76
2022-12-09T05:16:22.457Z,5.72
2022-12-09T05:18:49.991Z,5.71
2022-12-09T05:21:20.152Z,5.81
2022-12-09T05:23:48.047Z,5.99
2022-12-09T05:26:17.945Z,5.86
2022-12-09T05:28:45.665Z,5.69
2022-12-09T05:31:18.556Z,5.92
2022-12-09T05:33:46.999Z,6.02
2022-12-09T05:36:17.050Z,5.97
2022-12-09T05:38:44.394Z,5.56
2022-12-09T05:41:12.053Z,5.63
2022-12-09T05:43:38.982Z,5.06
2022-12-09T05:46:07.177Z,5.20
2022-12-09T05:48:35.378Z,5.49
2022-12-09T05:51:16.799Z,5.62
2022-12-09T05:53:43.825Z,5.83
2022-12-09T05:56:10.824Z,6.01
2022-12-09T05:58:38.029Z,5.94
2022-12-09T06:01:08.062Z,5.81
2022-12-09T06:03:36.449Z,6.16
2022-12-09T06:06:13.700Z,6.22
2022-12-09T06:08:41.923Z,6.11
2022-12-09T06:11:16.518Z,5.98
2022-12-09T06:13:44.131Z,6.04
2022-12-09T06:16:12.383Z,6.16
2022-12-09T06:18:40.427Z,6.20
2022-12-09T06:21:09.512Z,6.25
2022-12-09T06:23:39.077Z,6.31
2022-12-09T06:26:06.383Z,6.03
2022-12-09T06:28:34.020Z,6.04
2022-12-09T06:31:00.985Z,6.09
2022-12-09T06:33:53.677Z,6.10
2022-12-09T06:36:14.571Z,6.05
2022-12-09T06:38:42.201Z,6.15
2022-12-09T06:41:11.765Z,5.93
2022-12-09T06:43:39.478Z,5.54
2022-12-09T06:46:15.425Z,5.55
2022-12-09T06:48:42.953Z,5.77
2022-12-09T06:51:10.549Z,5.85
2022-12-09T06:53:37.889Z,5.72
2022-12-09T06:56:11.742Z,5.69
2022-12-09T06:58:42.244Z,5.65
2022-12-09T07:01:18.648Z,5.52
2022-12-09T07:03:49.289Z,5.71
2022-12-09T07:06:40.283Z,5.93
2022-12-09T07:09:13.281Z,6.05
2022-12-09T07:11:41.588Z,6.00
2022-12-09T07:14:10.648Z,6.05
2022-12-09T07:16:38.318Z,6.00
2022-12-09T07:19:07.022Z,6.15
2022-12-09T07:21:34.482Z,5.27
2022-12-09T07:24:03.098Z,5.47
2022-12-09T07:26:33.676Z,5.84
2022-12-09T07:29:05.843Z,5.39
2022-12-09T07:31:33.673Z,5.36
2022-12-09T07:34:01.460Z,5.66
2022-12-09T07:36:30.439Z,4.83
2022-12-09T07:39:04.042Z,5.27
2022-12-09T07:41:31.174Z,5.58
2022-12-09T07:43:58.091Z,5.70
2022-12-09T07:46:26.853Z,5.74
2022-12-09T07:48:54.395Z,5.92
2022-12-09T07:51:21.665Z,6.00
2022-12-09T07:53:48.772Z,5.97
2022-12-09T07:56:17.094Z,5.68
2022-12-09T07:58:46.376Z,5.69
2022-12-09T08:01:20.279Z,5.88
2022-12-09T08:03:48.796Z,5.91
2022-12-09T08:06:19.629Z,6.09
2022-12-09T08:08:48.370Z,6.09
2022-12-09T08:11:25.405Z,5.96
2022-12-09T08:13:53.975Z,6.10
2022-12-09T08:16:22.837Z,5.88
2022-12-09T08:18:51.622Z,5.81
2022-12-09T08:21:31.863Z,5.12
2022-12-09T08:24:02.363Z,5.54
2022-12-09T08:26:32.433Z,5.61
2022-12-09T08:28:59.964Z,5.71
2022-12-09T08:31:27.951Z,5.99
2022-12-09T08:33:55.772Z,6.11
2022-12-09T08:36:28.520Z,6.14
2022-12-09T08:38:59.481Z,6.17
2022-12-09T08:41:32.182Z,6.11
2022-12-09T08:43:59.227Z,6.19
2022-12-09T08:46:26.367Z,5.89
2022-12-09T08:48:53.703Z,5.84
2022-12-09T08:51:20.956Z,5.78
2022-12-09T08:53:48.141Z,5.95
2022-12-09T08:56:15.572Z,5.85
2022-12-09T08:58:43.333Z,6.14
2022-12-09T09:01:21.829Z,6.15
2022-12-09T09:03:50.907Z,6.28
2022-12-09T09:06:19.172Z,6.37
2022-12-09T09:08:46.123Z,6.47
2022-12-09T09:11:19.128Z,6.63
2022-12-09T09:13:49.217Z,6.66
2022-12-09T09:16:20.207Z,6.73
2022-12-09T09:18:48.351Z,6.61
2022-12-09T09:21:19.660Z,6.61
2022-12-09T09:23:48.055Z,6.52
2022-12-09T09:26:18.576Z,6.39
2022-12-09T09:28:45.911Z,6.54
2022-12-09T09:31:18.407Z,6.38
2022-12-09T09:33:46.148Z,6.19
2022-12-09T09:36:16.942Z,6.24
2022-12-09T09:38:43.975Z,6.41
2022-12-09T09:41:38.615Z,6.49
2022-12-09T09:44:25.599Z,6.68
2022-12-09T09:46:54.550Z,6.67
2022-12-09T09:49:38.417Z,6.22
2022-12-09T09:52:13.320Z,6.03
2022-12-09T09:54:40.109Z,6.18
2022-12-09T09:57:20.744Z,6.33
2022-12-09T09:59:53.960Z,6.49
2022-12-09T10:02:42.780Z,6.74
2022-12-09T10:05:28.590Z,6.69
2022-12-09T10:08:15.518Z,6.67
2022-12-09T10:11:03.850Z,6.70
2022-12-09T10:13:30.939Z,6.47
2022-12-09T10:16:19.009Z,6.38
2022-12-09T10:19:33.645Z,6.68
2022-12-09T10:22:14.732Z,6.79
2022-12-09T10:24:51.135Z,6.75
2022-12-09T10:27:34.907Z,6.69
2022-12-09T10:30:12.116Z,6.77
2022-12-09T10:32:40.274Z,6.87
2022-12-09T10:35:23.802Z,6.75
2022-12-09T10:37:53.062Z,6.75
2022-12-09T10:40:22.440Z,6.84
2022-12-09T10:42:55.588Z,7.11
2022-12-09T10:45:24.621Z,7.08
2022-12-09T10:47:55.337Z,7.17
2022-12-09T10:50:30.850Z,7.19
2022-12-09T10:53:08.395Z,7.25
2022-12-09T10:55:40.498Z,7.35
2022-12-09T10:58:29.024Z,7.28
2022-12-09T11:01:02.906Z,7.18
2022-12-09T11:03:47.394Z,7.24
2022-12-09T11:06:23.248Z,7.47
2022-12-09T11:08:54.572Z,7.48
2022-12-09T11:11:45.689Z,7.43
2022-12-09T11:14:20.409Z,7.50
2022-12-09T11:16:47.484Z,7.40
2022-12-09T11:19:15.243Z,7.34
2022-12-09T11:21:42.289Z,7.08
2022-12-09T11:24:23.913Z,6.98
2022-12-09T11:26:50.995Z,6.64
2022-12-09T11:29:19.392Z,6.80
2022-12-09T11:31:47.382Z,6.82
2022-12-09T11:34:21.827Z,6.92
2022-12-09T11:36:55.589Z,6.82
2022-12-09T11:39:34.711Z,6.84
2022-12-09T11:42:20.684Z,7.05
2022-12-09T11:45:06.041Z,7.11
2022-12-09T11:48:24.071Z,7.10
2022-12-09T11:50:27.258Z,6.75
2022-12-09T11:53:10.588Z,6.00
2022-12-09T11:55:46.041Z,6.00
2022-12-09T11:58:34.954Z,5.79
2022-12-09T12:01:04.141Z,6.00
2022-12-09T12:03:39.671Z,5.99
2022-12-09T12:06:20.372Z,4.76
2022-12-09T12:09:02.694Z,5.42
2022-12-09T12:11:39.320Z,5.58
2022-12-09T12:14:24.965Z,5.89
2022-12-09T12:17:09.773Z,6.36
2022-12-09T12:19:41.833Z,6.47
2022-12-09T12:22:29.669Z,6.68
2022-12-09T12:25:29.856Z,6.86
2022-12-09T12:28:17.630Z,7.04
2022-12-09T12:31:27.461Z,7.17
2022-12-09T12:34:27.226Z,7.23
2022-12-09T12:37:15.657Z,6.70
2022-12-09T12:39:59.605Z,6.92
2022-12-09T12:42:38.151Z,6.76
2022-12-09T12:45:24.020Z,6.90
2022-12-09T12:47:57.988Z,6.91
2022-12-09T12:50:35.425Z,7.10
2022-12-09T12:53:10.971Z,7.05
2022-12-09T12:55:56.006Z,6.84
2022-12-09T12:58:44.707Z,6.51
2022-12-09T13:01:17.512Z,6.52
2022-12-09T13:04:02.208Z,6.50
2022-12-09T13:06:36.298Z,6.14
2022-12-09T13:09:11.775Z,6.38
2022-12-09T13:12:11.922Z,6.28
2022-12-09T13:14:53.019Z,6.38
2022-12-09T13:17:25.677Z,6.15
2022-12-09T13:19:58.533Z,6.40
2022-12-09T13:22:44.259Z,6.68
2022-12-09T13:25:20.074Z,6.54
2022-12-09T13:28:10.771Z,6.77
2022-12-09T13:30:54.060Z,6.79
2022-12-09T13:33:58.040Z,6.86
2022-12-09T13:36:44.520Z,6.75
2022-12-09T13:39:12.605Z,6.69
2022-12-09T13:41:43.280Z,6.60
2022-12-09T13:44:13.794Z,6.75
2022-12-09T13:46:40.807Z,6.43
2022-12-09T13:49:27.124Z,6.23
2022-12-09T13:51:56.020Z,6.39
2022-12-09T13:54:27.084Z,6.37
2022-12-09T13:57:33.507Z,5.85
2022-12-09T14:00:05.882Z,5.94
2022-12-09T14:02:51.725Z,5.02
2022-12-09T14:05:23.782Z,5.74
2022-12-09T14:08:02.771Z,5.72
2022-12-09T14:10:42.170Z,5.63
2022-12-09T14:13:23.573Z,5.86
2022-12-09T14:16:28.025Z,6.25
2022-12-09T14:18:56.709Z,6.10
2022-12-09T14:21:32.555Z,6.37
2022-12-09T14:24:07.904Z,6.54
2022-12-09T14:26:52.484Z,6.71
2022-12-09T14:29:46.963Z,6.66
2022-12-09T14:32:54.025Z,6.63
2022-12-09T14:35:45.858Z,6.77
2022-12-09T14:39:08.309Z,6.75
2022-12-09T14:42:07.832Z,7.00
2022-12-09T14:45:17.835Z,6.86
2022-12-09T14:47:47.676Z,6.85
2022-12-09T14:50:21.272Z,6.92
2022-12-09T14:52:58.472Z,6.99
2022-12-09T14:55:28.139Z,6.76
2022-12-09T14:57:58.041Z,6.82
2022-12-09T15:00:37.198Z,6.57
2022-12-09T15:03:34.420Z,6.03
2022-12-09T15:06:06.155Z,5.93
2022-12-09T15:08:36.302Z,6.00
2022-12-09T15:11:29.300Z,6.08
2022-12-09T15:13:58.893Z,6.37
2022-12-09T15:16:27.739Z,6.25
2022-12-09T15:18:55.078Z,6.37
2022-12-09T15:21:31.605Z,6.25
2022-12-09T15:24:05.338Z,5.64
2022-12-09T15:26:34.440Z,5.76
2022-12-09T15:29:01.654Z,5.51
2022-12-09T15:31:31.534Z,5.61
2022-12-09T15:34:21.723Z,5.40
2022-12-09T15:37:00.379Z,4.85
2022-12-09T15:39:38.158Z,5.43
2022-12-09T15:42:10.903Z,5.56
2022-12-09T15:45:10.710Z,5.90
2022-12-09T15:47:47.572Z,5.56
2022-12-09T15:50:26.685Z,5.76
2022-12-09T15:53:05.623Z,6.03
2022-12-09T15:55:37.542Z,6.04
2022-12-09T15:58:10.012Z,6.30
2022-12-09T16:00:40.721Z,6.47
2022-12-09T16:03:07.678Z,6.62
2022-12-09T16:05:41.834Z,6.68
2022-12-09T16:08:10.252Z,6.50
2022-12-09T16:10:49.001Z,6.15
2022-12-09T16:13:17.681Z,5.62
2022-12-09T16:15:50.932Z,5.85
2022-12-09T16:18:22.188Z,6.19
2022-12-09T16:21:29.986Z,6.20
2022-12-09T16:24:14.936Z,6.51
2022-12-09T16:26:47.422Z,6.61
2022-12-09T16:29:32.001Z,6.72
2022-12-09T16:32:16.949Z,6.40
2022-12-09T16:34:48.997Z,6.56
2022-12-09T16:37:39.733Z,6.46
2022-12-09T16:40:21.485Z,6.44
2022-12-09T16:42:49.912Z,6.70
2022-12-09T16:45:19.475Z,6.40
2022-12-09T16:47:46.370Z,6.50
2022-12-09T16:50:13.308Z,6.19
2022-12-09T16:52:40.131Z,5.70
2022-12-09T16:55:22.563Z,6.03
2022-12-09T16:57:50.759Z,5.88
2022-12-09T17:00:18.734Z,6.10
2022-12-09T17:02:52.368Z,6.19
2022-12-09T17:05:21.763Z,6.39
2022-12-09T17:07:48.567Z,6.30
2022-12-09T17:10:16.583Z,6.39
2022-12-09T17:12:44.270Z,6.62
2022-12-09T17:15:18.823Z,6.72
2022-12-09T17:17:48.809Z,6.88
2022-12-09T17:20:18.141Z,6.96
2022-12-09T17:22:47.700Z,6.95
2022-12-09T17:25:14.387Z,7.04
2022-12-09T17:27:41.065Z,7.00
2022-12-09T17:30:08.371Z,6.90
2022-12-09T17:32:35.062Z,6.92
2022-12-09T17:35:01.792Z,6.99
2022-12-09T17:37:28.505Z,7.09
2022-12-09T17:40:01.692Z,6.95
2022-12-09T17:42:32.671Z,6.96
2022-12-09T17:44:59.356Z,6.91
2022-12-09T17:47:26.157Z,6.86
2022-12-09T17:49:53.141Z,6.78
2022-12-09T17:52:19.916Z,6.83
2022-12-09T17:54:48.037Z,6.63
2022-12-09T17:57:14.697Z,6.65
2022-12-09T17:59:41.368Z,6.64
2022-12-09T18:02:10.707Z,6.51
2022-12-09T18:04:37.479Z,6.58
2022-12-09T18:07:04.180Z,6.51
2022-12-09T18:09:33.270Z,6.67
2022-12-09T18:11:59.932Z,6.71
2022-12-09T18:14:26.645Z,6.77
2022-12-09T18:16:56.024Z,6.10
2022-12-09T18:19:22.672Z,5.68
2022-12-09T18:21:49.284Z,5.89
2022-12-09T18:24:15.931Z,6.40
2022-12-09T18:26:42.707Z,6.53
2022-12-09T18:29:10.600Z,6.59
2022-12-09T18:31:37.612Z,6.54
2022-12-09T18:34:04.357Z,6.50
2022-12-09T18:36:30.989Z,6.62
2022-12-09T18:39:00.044Z,6.40
2022-12-09T18:41:30.672Z,6.50
2022-12-09T18:44:00.697Z,6.60
2022-12-09T18:46:33.909Z,6.62
2022-12-09T18:49:10.758Z,6.41
2022-12-09T18:51:38.365Z,6.51
2022-12-09T18:54:06.781Z,6.14
2022-12-09T18:56:35.123Z,6.63
2022-12-09T18:59:07.013Z,6.70
2022-12-09T19:01:37.688Z,6.72
2022-12-09T19:04:06.249Z,6.85
2022-12-09T19:06:36.350Z,6.46
2022-12-09T19:09:13.357Z,6.36
2022-12-09T19:11:41.782Z,6.20
2022-12-09T19:14:09.665Z,6.18
2022-12-09T19:16:36.820Z,6.27
2022-12-09T19:19:09.623Z,6.48
2022-12-09T19:21:37.902Z,6.50
2022-12-09T19:24:05.004Z,6.38
2022-12-09T19:26:34.474Z,6.01
2022-12-09T19:29:05.760Z,6.11
2022-12-09T19:31:35.678Z,6.08
2022-12-09T19:34:06.756Z,5.93
2022-12-09T19:36:33.596Z,6.02
2022-12-09T19:39:01.346Z,6.11
2022-12-09T19:41:28.528Z,6.42
2022-12-09T19:43:57.294Z,6.11
2022-12-09T19:46:28.070Z,5.87
2022-12-09T19:48:55.813Z,5.46
2022-12-09T19:51:27.276Z,5.38
2022-12-09T19:53:56.345Z,5.08
2022-12-09T19:56:23.965Z,4.98
2022-12-09T19:58:51.930Z,4.60
2022-12-09T20:01:18.601Z,5.05
2022-12-09T20:03:47.763Z,5.67
2022-12-09T20:06:20.218Z,6.10
2022-12-09T20:08:48.545Z,6.22
2022-12-09T20:11:21.084Z,6.10
2022-12-09T20:13:48.867Z,6.40
2022-12-09T20:16:19.096Z,6.39
2022-12-09T20:18:45.916Z,6.51
2022-12-09T20:21:13.809Z,6.48
2022-12-09T20:23:42.052Z,6.61
2022-12-09T20:26:11.357Z,6.56
2022-12-09T20:28:39.948Z,6.54
2022-12-09T20:31:22.347Z,6.70
2022-12-09T20:33:53.577Z,6.81
2022-12-09T20:36:23.294Z,6.69
2022-12-09T20:38:52.888Z,6.64
2022-12-09T20:41:20.800Z,6.07
2022-12-09T20:43:49.174Z,6.20
2022-12-09T20:46:21.906Z,5.24
2022-12-09T20:48:50.294Z,5.62
2022-12-09T20:51:29.149Z,5.62
2022-12-09T20:53:56.780Z,6.01
2022-12-09T20:56:26.428Z,6.27
2022-12-09T20:58:54.455Z,5.74
2022-12-09T21:01:26.961Z,5.92
2022-12-09T21:03:55.240Z,5.92
2022-12-09T21:06:24.755Z,5.98
2022-12-09T21:08:52.541Z,5.61
2022-12-09T21:11:22.271Z,6.01
2022-12-09T21:13:52.797Z,6.01
2022-12-09T21:16:35.552Z,5.32
2022-12-09T21:19:04.186Z,4.69
2022-12-09T21:21:34.680Z,4.55
2022-12-09T21:24:02.757Z,4.54
2022-12-09T21:26:29.743Z,4.95
2022-12-09T21:28:59.331Z,4.85
2022-12-09T21:31:29.494Z,5.71
2022-12-09T21:33:58.154Z,6.11
2022-12-09T21:36:28.404Z,5.94
2022-12-09T21:38:55.697Z,5.75
2022-12-09T21:41:29.183Z,6.03
2022-12-09T21:43:56.235Z,6.35
2022-12-09T21:46:25.771Z,6.03
2022-12-09T21:48:58.578Z,6.34
2022-12-09T21:51:29.834Z,6.35
2022-12-09T21:53:59.152Z,6.15
2022-12-09T21:56:28.567Z,6.58
2022-12-09T21:58:57.675Z,6.42
2022-12-09T22:01:30.113Z,6.45
2022-12-09T22:03:58.744Z,6.43
2022-12-09T22:06:26.136Z,6.43
2022-12-09T22:08:53.063Z,6.74
2022-12-09T22:11:23.351Z,6.79
2022-12-09T22:13:51.805Z,6.10
2022-12-09T22:16:24.494Z,5.70
2022-12-09T22:18:54.048Z,5.92
2022-12-09T22:21:25.701Z,6.33
2022-12-09T22:23:58.521Z,6.21
2022-12-09T22:26:26.691Z,6.03
2022-12-09T22:28:54.040Z,5.93
2022-12-09T22:31:24.247Z,6.26
2022-12-09T22:33:55.177Z,6.43
2022-12-09T22:36:22.609Z,6.50
2022-12-09T22:38:49.920Z,5.93
2022-12-09T22:41:20.812Z,6.55
2022-12-09T22:43:49.032Z,6.83
2022-12-09T22:46:23.175Z,6.79
2022-12-09T22:48:50.051Z,6.43
2022-12-09T22:51:20.514Z,6.77
2022-12-09T22:53:49.354Z,7.08
2022-12-09T22:56:16.414Z,7.21
2022-12-09T22:58:43.056Z,7.30
2022-12-09T23:01:15.976Z,7.30
2022-12-09T23:03:43.332Z,7.44
2022-12-09T23:06:12.041Z,7.49
2022-12-09T23:08:41.546Z,7.55
2022-12-09T23:11:13.436Z,7.54
2022-12-09T23:13:41.354Z,7.02
2022-12-09T23:16:11.844Z,7.00
2022-12-09T23:18:41.569Z,7.13
2022-12-09T23:21:11.600Z,6.97
2022-12-09T23:23:39.026Z,6.05
2022-12-09T23:26:08.842Z,6.25
2022-12-09T23:28:44.057Z,6.40
2022-12-09T23:31:13.380Z,6.02
2022-12-09T23:33:42.084Z,6.09
2022-12-09T23:36:11.835Z,5.79
2022-12-09T23:38:38.615Z,5.86
2022-12-09T23:41:06.783Z,5.99
2022-12-09T23:43:37.999Z,6.15
2022-12-09T23:46:15.334Z,6.44
2022-12-09T23:48:44.359Z,6.12
2022-12-09T23:51:17.474Z,5.68
2022-12-09T23:53:45.800Z,6.23
2022-12-09T23:56:15.916Z,6.29
2022-12-09T23:58:43.058Z,6.25
